createdAt,value
2023-03-29T00:02:32.994Z,91759.19
2023-03-29T00:05:04.073Z,91757.41
2023-03-29T00:07:33.413Z,91753.03
2023-03-29T00:10:01.390Z,91751.72
2023-03-29T00:12:28.573Z,91757.38
2023-03-29T00:14:55.346Z,91755.81
2023-03-29T00:17:22.059Z,91748.44
2023-03-29T00:19:49.192Z,91748.69
2023-03-29T00:22:15.977Z,91746.53
2023-03-29T00:24:42.652Z,91745.19
2023-03-29T00:27:09.348Z,91736.94
2023-03-29T00:29:36.041Z,91733.69
2023-03-29T00:32:02.659Z,91739.59
2023-03-29T00:34:31.957Z,91739.16
2023-03-29T00:36:58.826Z,91743.31
2023-03-29T00:39:26.416Z,91736.94
2023-03-29T00:41:53.215Z,91736.81
2023-03-29T00:44:55.470Z,91740.09
2023-03-29T00:47:42.263Z,91744.38
2023-03-29T00:50:12.476Z,91745.81
2023-03-29T00:52:39.580Z,91743.13
2023-03-29T00:55:10.163Z,91743.41
2023-03-29T00:57:37.422Z,91740.50
2023-03-29T01:00:05.167Z,91742.53
2023-03-29T01:02:34.529Z,91748.88
2023-03-29T01:05:07.188Z,91757.94
2023-03-29T01:07:48.174Z,91763.97
2023-03-29T01:10:27.309Z,91756.69
2023-03-29T01:12:56.715Z,91749.97
2023-03-29T01:15:25.348Z,91757.47
2023-03-29T01:17:53.907Z,91756.03
2023-03-29T01:20:43.776Z,91761.31
2023-03-29T01:23:44.044Z,91764.72
2023-03-29T01:26:27.154Z,91769.16
2023-03-29T01:29:14.347Z,91770.66
2023-03-29T01:31:44.492Z,91777.56
2023-03-29T01:34:14.731Z,91784.19
2023-03-29T01:36:54.798Z,91770.03
2023-03-29T01:39:22.099Z,91771.91
2023-03-29T01:42:23.901Z,91767.88
2023-03-29T01:45:06.551Z,91771.72
2023-03-29T01:47:47.835Z,91759.88
2023-03-29T01:50:36.313Z,91770.97
2023-03-29T01:53:24.814Z,91772.97
2023-03-29T01:56:00.519Z,91764.50
2023-03-29T01:58:29.500Z,91761.31
2023-03-29T02:00:56.215Z,91757.00
2023-03-29T02:03:24.600Z,91763.25
2023-03-29T02:05:51.572Z,91768.00
2023-03-29T02:08:18.320Z,91770.94
2023-03-29T02:10:45.055Z,91777.97
2023-03-29T02:13:11.769Z,91778.47
2023-03-29T02:15:38.677Z,91773.84
2023-03-29T02:18:06.698Z,91773.50
2023-03-29T02:20:39.210Z,91784.19
2023-03-29T02:23:23.482Z,91787.69
2023-03-29T02:25:50.741Z,91789.03
2023-03-29T02:28:17.748Z,91795.84
2023-03-29T02:30:53.566Z,91794.31
2023-03-29T02:33:54.232Z,91796.16
2023-03-29T02:36:28.180Z,91799.19
2023-03-29T02:38:54.894Z,91793.28
2023-03-29T02:41:22.454Z,91789.34
2023-03-29T02:43:49.179Z,91790.22
2023-03-29T02:46:16.156Z,91796.91
2023-03-29T02:48:42.890Z,91804.13
2023-03-29T02:51:18.014Z,91795.88
2023-03-29T02:54:03.209Z,91802.19
2023-03-29T02:56:29.981Z,91805.03
2023-03-29T02:58:56.576Z,91806.53
2023-03-29T03:01:23.325Z,91806.56
2023-03-29T03:03:50.844Z,91823.16
2023-03-29T03:06:18.371Z,91811.00
2023-03-29T03:08:45.058Z,91808.75
2023-03-29T03:11:11.728Z,91820.19
2023-03-29T03:13:38.415Z,91826.28
2023-03-29T03:16:05.443Z,91832.72
2023-03-29T03:18:32.670Z,91834.88
2023-03-29T03:21:01.878Z,91835.59
2023-03-29T03:23:29.573Z,91840.13
2023-03-29T03:25:56.594Z,91845.00
2023-03-29T03:28:27.446Z,91839.56
2023-03-29T03:30:54.390Z,91844.31
2023-03-29T03:33:21.357Z,91834.28
2023-03-29T03:35:48.084Z,91838.16
2023-03-29T03:38:15.277Z,91842.81
2023-03-29T03:40:42.641Z,91862.78
2023-03-29T03:43:09.391Z,91851.31
2023-03-29T03:45:36.094Z,91853.72
2023-03-29T03:48:02.869Z,91843.31
2023-03-29T03:50:29.630Z,91851.13
2023-03-29T03:52:56.473Z,91848.94
2023-03-29T03:55:24.009Z,91859.50
2023-03-29T03:57:52.025Z,91855.28
2023-03-29T04:00:22.885Z,91866.78
2023-03-29T04:02:50.782Z,91863.16
2023-03-29T04:05:17.536Z,91888.53
2023-03-29T04:07:44.319Z,91867.44
2023-03-29T04:10:11.171Z,91868.22
2023-03-29T04:12:38.124Z,91862.06
2023-03-29T04:15:05.313Z,91872.69
2023-03-29T04:17:32.070Z,91876.75
2023-03-29T04:19:58.766Z,91868.34
2023-03-29T04:22:25.775Z,91869.03
2023-03-29T04:24:52.519Z,91873.25
2023-03-29T04:27:19.261Z,91871.28
2023-03-29T04:29:46.416Z,91866.22
2023-03-29T04:32:13.095Z,91879.13
2023-03-29T04:34:39.843Z,91879.13
2023-03-29T04:37:10.684Z,91873.19
2023-03-29T04:39:37.771Z,91880.53
2023-03-29T04:42:05.270Z,91885.28
2023-03-29T04:44:35.111Z,91881.97
2023-03-29T04:47:01.776Z,91887.81
2023-03-29T04:49:29.076Z,91897.97
2023-03-29T04:51:55.976Z,91895.53
2023-03-29T04:54:22.734Z,91897.41
2023-03-29T04:56:49.781Z,91897.56
2023-03-29T04:59:16.464Z,91904.50
2023-03-29T05:01:43.191Z,91902.13
2023-03-29T05:04:12.547Z,91899.56
2023-03-29T05:06:40.106Z,91918.84
2023-03-29T05:09:07.345Z,91921.41
2023-03-29T05:11:34.053Z,91909.09
2023-03-29T05:14:03.272Z,91909.09
2023-03-29T05:16:30.312Z,91904.09
2023-03-29T05:18:57.518Z,91912.47
2023-03-29T05:21:26.213Z,91908.75
2023-03-29T05:23:53.296Z,91904.44
2023-03-29T05:26:20.275Z,91924.38
2023-03-29T05:28:47.059Z,91914.09
2023-03-29T05:31:16.675Z,91903.03
2023-03-29T05:33:43.999Z,91913.09
2023-03-29T05:36:13.641Z,91904.22
2023-03-29T05:38:41.158Z,91914.28
2023-03-29T05:41:08.306Z,91935.72
2023-03-29T05:43:35.072Z,91923.09
2023-03-29T05:46:01.798Z,91934.34
2023-03-29T05:48:28.840Z,91922.97
2023-03-29T05:50:56.365Z,91938.06
2023-03-29T05:53:24.012Z,91932.66
2023-03-29T05:55:51.430Z,91943.50
2023-03-29T05:58:20.281Z,91944.88
2023-03-29T06:00:49.582Z,91934.38
2023-03-29T06:03:21.548Z,91937.75
2023-03-29T06:05:50.021Z,91940.91
2023-03-29T06:08:16.861Z,91949.28
2023-03-29T06:10:43.818Z,91935.22
2023-03-29T06:13:10.947Z,91949.84
2023-03-29T06:15:37.963Z,91961.72
2023-03-29T06:18:04.741Z,91957.56
2023-03-29T06:20:31.775Z,91957.09
2023-03-29T06:22:58.469Z,91980.53
2023-03-29T06:25:25.138Z,91982.84
2023-03-29T06:27:52.240Z,91988.59
2023-03-29T06:30:19.349Z,91980.66
2023-03-29T06:32:46.390Z,91983.16
2023-03-29T06:35:13.137Z,91986.00
2023-03-29T06:37:41.241Z,91994.16
2023-03-29T06:40:09.434Z,91991.44
2023-03-29T06:42:36.088Z,91997.84
2023-03-29T06:45:04.085Z,91992.88
2023-03-29T06:47:31.672Z,91991.66
2023-03-29T06:49:58.350Z,91998.72
2023-03-29T06:52:25.021Z,92000.00
2023-03-29T06:54:51.822Z,91994.38
2023-03-29T06:57:18.834Z,91998.25
2023-03-29T06:59:46.564Z,91994.25
2023-03-29T07:02:13.272Z,92007.56
2023-03-29T07:04:41.803Z,91990.94
2023-03-29T07:07:19.730Z,92002.41
2023-03-29T07:09:54.164Z,91992.91
2023-03-29T07:12:22.581Z,91987.44
2023-03-29T07:14:49.270Z,91995.50
2023-03-29T07:17:16.724Z,92008.00
2023-03-29T07:19:43.537Z,92005.19
2023-03-29T07:22:11.268Z,92002.16
2023-03-29T07:24:38.022Z,92002.31
2023-03-29T07:27:05.299Z,92001.19
2023-03-29T07:29:32.301Z,92001.47
2023-03-29T07:31:59.093Z,92008.16
2023-03-29T07:34:25.902Z,92009.06
2023-03-29T07:36:52.611Z,92012.78
2023-03-29T07:39:19.254Z,92015.78
2023-03-29T07:41:46.008Z,92017.22
2023-03-29T07:44:12.604Z,92001.22
2023-03-29T07:46:39.254Z,92020.16
2023-03-29T07:49:07.520Z,91999.31
2023-03-29T07:51:36.623Z,91993.16
2023-03-29T07:54:03.290Z,92002.38
2023-03-29T07:56:30.246Z,92001.41
2023-03-29T07:58:57.250Z,91995.47
2023-03-29T08:01:24.848Z,91993.06
2023-03-29T08:03:52.339Z,91993.13
2023-03-29T08:06:19.042Z,91984.06
2023-03-29T08:08:46.261Z,91978.22
2023-03-29T08:11:12.920Z,91982.13
2023-03-29T08:13:39.522Z,91976.75
2023-03-29T08:16:06.782Z,91974.44
2023-03-29T08:18:34.825Z,91964.81
2023-03-29T08:21:02.222Z,91967.94
2023-03-29T08:23:30.201Z,91962.25
2023-03-29T08:25:56.945Z,91961.84
2023-03-29T08:28:24.376Z,91964.97
2023-03-29T08:30:51.170Z,91959.66
2023-03-29T08:33:18.030Z,91979.19
2023-03-29T08:35:44.864Z,91973.84
2023-03-29T08:38:12.581Z,91966.88
2023-03-29T08:40:39.261Z,91972.91
2023-03-29T08:43:28.582Z,91968.38
2023-03-29T08:46:28.972Z,91970.28
2023-03-29T08:49:02.650Z,91948.16
2023-03-29T08:51:43.128Z,91963.03
2023-03-29T08:54:15.794Z,91954.81
2023-03-29T08:56:43.431Z,91960.31
2023-03-29T08:59:26.677Z,91961.09
2023-03-29T09:01:54.427Z,91947.13
2023-03-29T09:04:25.388Z,91946.75
2023-03-29T09:06:52.424Z,91947.72
2023-03-29T09:09:20.965Z,91950.59
2023-03-29T09:12:05.159Z,91955.00
2023-03-29T09:14:47.372Z,91941.50
2023-03-29T09:17:42.909Z,91966.50
2023-03-29T09:20:32.245Z,91941.69
2023-03-29T09:23:18.136Z,91961.47
2023-03-29T09:26:12.537Z,91946.06
2023-03-29T09:29:09.548Z,91933.19
2023-03-29T09:31:39.041Z,91950.31
2023-03-29T09:34:15.704Z,91944.50
2023-03-29T09:36:48.662Z,91953.09
2023-03-29T09:39:16.522Z,91940.66
2023-03-29T09:42:08.188Z,91935.47
2023-03-29T09:44:40.862Z,91934.78
2023-03-29T09:47:19.291Z,91929.13
2023-03-29T09:49:47.930Z,91938.59
2023-03-29T09:52:15.331Z,91953.25
2023-03-29T09:54:42.172Z,91940.44
2023-03-29T09:57:16.537Z,91928.03
2023-03-29T09:59:44.053Z,91947.22
2023-03-29T10:02:12.864Z,91931.31
2023-03-29T10:04:42.082Z,91944.25
2023-03-29T10:07:20.767Z,91925.56
2023-03-29T10:09:56.192Z,91926.78
2023-03-29T10:12:23.120Z,91922.31
2023-03-29T10:14:52.196Z,91942.56
2023-03-29T10:17:25.391Z,91936.88
2023-03-29T10:19:55.689Z,91943.81
2023-03-29T10:22:27.298Z,91913.28
2023-03-29T10:24:54.948Z,91918.56
2023-03-29T10:27:27.075Z,91926.00
2023-03-29T10:29:54.324Z,91920.72
2023-03-29T10:32:34.321Z,91898.81
2023-03-29T10:35:15.783Z,91922.75
2023-03-29T10:37:43.175Z,91907.41
2023-03-29T10:40:22.513Z,91919.56
2023-03-29T10:42:50.304Z,91901.88
2023-03-29T10:45:31.872Z,91889.97
2023-03-29T10:47:58.802Z,91906.59
2023-03-29T10:50:27.072Z,91901.91
2023-03-29T10:52:53.880Z,91919.00
2023-03-29T10:55:20.607Z,91885.31
2023-03-29T10:58:16.323Z,91900.09
2023-03-29T11:00:51.189Z,91874.88
2023-03-29T11:03:40.665Z,91873.34
2023-03-29T11:06:30.408Z,91865.47
2023-03-29T11:09:02.052Z,91876.97
2023-03-29T11:11:31.704Z,91881.41
2023-03-29T11:14:55.642Z,91862.91
2023-03-29T11:17:57.328Z,91833.53
2023-03-29T11:20:45.843Z,91837.53
2023-03-29T11:23:28.539Z,91853.56
2023-03-29T11:26:14.087Z,91850.56
2023-03-29T11:28:42.322Z,91842.06
2023-03-29T11:31:44.288Z,91837.25
2023-03-29T11:34:17.618Z,91843.34
2023-03-29T11:36:51.769Z,91824.25
2023-03-29T11:39:54.860Z,91834.63
2023-03-29T11:42:24.255Z,91861.09
2023-03-29T11:47:23.125Z,91854.63
2023-03-29T11:50:14.675Z,91853.22
2023-03-29T11:52:44.861Z,91851.78
2023-03-29T11:55:18.962Z,91864.78
2023-03-29T11:57:45.532Z,91858.84
2023-03-29T12:00:19.703Z,91858.66
2023-03-29T12:02:47.837Z,91864.91
2023-03-29T12:05:28.073Z,91854.84
2023-03-29T12:08:00.471Z,91856.03
2023-03-29T12:10:31.314Z,91861.25
2023-03-29T12:13:03.340Z,91861.63
2023-03-29T12:15:32.087Z,91861.81
2023-03-29T12:18:06.972Z,91853.34
2023-03-29T12:20:38.945Z,91871.09
2023-03-29T12:23:06.824Z,91869.84
2023-03-29T12:25:38.236Z,91868.84
2023-03-29T12:28:21.176Z,91847.81
2023-03-29T12:31:15.044Z,91865.22
2023-03-29T12:34:07.764Z,91862.25
2023-03-29T12:36:45.321Z,91849.16
2023-03-29T12:39:15.336Z,91848.13
2023-03-29T12:41:44.977Z,91853.50
2023-03-29T12:44:13.559Z,91863.53
2023-03-29T12:46:40.235Z,91857.63
2023-03-29T12:49:31.897Z,91861.22
2023-03-29T12:51:59.289Z,91854.91
2023-03-29T12:54:28.430Z,91856.81
2023-03-29T12:57:00.640Z,91854.47
2023-03-29T12:59:38.414Z,91868.56
2023-03-29T13:02:14.149Z,91863.81
2023-03-29T13:04:43.914Z,91854.16
2023-03-29T13:07:32.077Z,91881.25
2023-03-29T13:10:03.636Z,91843.31
2023-03-29T13:12:43.188Z,91860.22
2023-03-29T13:15:17.145Z,91861.88
2023-03-29T13:18:11.701Z,91869.44
2023-03-29T13:21:15.930Z,91856.94
2023-03-29T13:23:45.884Z,91867.25
2023-03-29T13:26:31.553Z,91868.69
2023-03-29T13:29:20.392Z,91871.91
2023-03-29T13:31:58.044Z,91868.19
2023-03-29T13:34:43.240Z,91858.16
2023-03-29T13:37:22.765Z,91867.44
2023-03-29T13:39:51.760Z,91843.38
2023-03-29T13:42:31.361Z,91864.19
2023-03-29T13:45:23.555Z,91874.34
2023-03-29T13:48:02.641Z,91866.22
2023-03-29T13:50:40.703Z,91849.50
2023-03-29T13:53:26.124Z,91845.59
2023-03-29T13:55:53.321Z,91844.59
2023-03-29T13:58:43.868Z,91856.34
2023-03-29T14:01:29.261Z,91870.09
2023-03-29T14:03:56.093Z,91875.25
2023-03-29T14:06:27.582Z,91862.78
2023-03-29T14:08:54.256Z,91865.72
2023-03-29T14:11:28.547Z,91867.72
2023-03-29T14:13:57.132Z,91869.66
2023-03-29T14:16:23.987Z,91895.72
2023-03-29T14:18:52.634Z,91852.03
2023-03-29T14:21:19.664Z,91875.38
2023-03-29T14:23:47.498Z,91874.56
2023-03-29T14:26:22.146Z,91871.75
2023-03-29T14:28:52.778Z,91862.00
2023-03-29T14:31:20.444Z,91864.25
2023-03-29T14:33:51.984Z,91866.91
2023-03-29T14:36:18.780Z,91861.13
2023-03-29T14:38:48.623Z,91869.06
2023-03-29T14:41:15.357Z,91879.69
2023-03-29T14:43:42.043Z,91864.38
2023-03-29T14:46:08.711Z,91863.47
2023-03-29T14:48:36.046Z,91873.78
2023-03-29T14:51:02.775Z,91864.69
2023-03-29T14:53:31.889Z,91870.22
2023-03-29T14:55:58.607Z,91863.88
2023-03-29T14:58:31.766Z,91871.50
2023-03-29T15:00:58.902Z,91886.50
2023-03-29T15:03:29.299Z,91873.47
2023-03-29T15:06:01.283Z,91873.81
2023-03-29T15:08:38.214Z,91877.44
2023-03-29T15:11:34.861Z,91877.09
2023-03-29T15:14:09.091Z,91883.13
2023-03-29T15:16:42.014Z,91893.50
2023-03-29T15:19:17.766Z,91885.03
2023-03-29T15:21:44.541Z,91890.81
2023-03-29T15:24:19.440Z,91888.28
2023-03-29T15:26:46.201Z,91895.88
2023-03-29T15:29:14.736Z,91906.03
2023-03-29T15:31:41.881Z,91902.22
2023-03-29T15:34:12.112Z,91906.19
2023-03-29T15:36:48.271Z,91886.75
2023-03-29T15:39:17.071Z,91901.91
2023-03-29T15:41:44.208Z,91901.31
2023-03-29T15:44:11.038Z,91906.50
2023-03-29T15:46:37.934Z,91904.22
2023-03-29T15:49:05.160Z,91903.63
2023-03-29T15:51:31.994Z,91904.75
2023-03-29T15:53:58.678Z,91902.03
2023-03-29T15:56:26.701Z,91902.53
2023-03-29T15:58:53.415Z,91906.84
2023-03-29T16:01:39.669Z,91916.13
2023-03-29T16:04:07.980Z,91912.03
2023-03-29T16:06:34.803Z,91915.72
2023-03-29T16:09:01.615Z,91924.34
2023-03-29T16:11:28.474Z,91929.28
2023-03-29T16:13:55.904Z,91926.19
2023-03-29T16:16:22.651Z,91942.03
2023-03-29T16:18:49.565Z,91946.72
2023-03-29T16:21:20.829Z,91937.09
2023-03-29T16:23:47.553Z,91942.03
2023-03-29T16:26:14.968Z,91944.63
2023-03-29T16:28:41.760Z,91951.13
2023-03-29T16:31:11.185Z,91953.97
2023-03-29T16:33:38.264Z,91947.19
2023-03-29T16:36:05.617Z,91961.00
2023-03-29T16:38:33.736Z,91958.69
2023-03-29T16:41:00.634Z,91965.94
2023-03-29T16:43:27.749Z,91971.13
2023-03-29T16:45:54.578Z,91978.19
2023-03-29T16:48:21.301Z,91972.84
2023-03-29T16:50:51.114Z,91968.97
2023-03-29T16:53:21.717Z,91979.59
2023-03-29T16:55:49.317Z,91978.28
2023-03-29T16:58:16.278Z,91970.94
2023-03-29T17:00:45.683Z,91972.03
2023-03-29T17:03:14.107Z,91976.16
2023-03-29T17:05:41.733Z,91982.94
2023-03-29T17:08:10.136Z,91982.88
2023-03-29T17:10:39.621Z,91981.25
2023-03-29T17:13:06.843Z,91980.47
2023-03-29T17:15:33.876Z,91988.53
2023-03-29T17:18:00.618Z,91992.19
2023-03-29T17:20:27.423Z,91993.78
2023-03-29T17:22:56.066Z,91993.00
2023-03-29T17:25:23.285Z,91993.13
2023-03-29T17:27:50.118Z,91998.00
2023-03-29T17:30:17.034Z,91998.75
2023-03-29T17:32:44.118Z,92007.34
2023-03-29T17:35:10.826Z,91997.28
2023-03-29T17:37:37.551Z,92005.09
2023-03-29T17:40:12.566Z,92003.47
2023-03-29T17:42:40.319Z,92005.13
2023-03-29T17:45:08.111Z,92016.56
2023-03-29T17:47:34.885Z,92007.47
2023-03-29T17:50:01.461Z,92018.06
2023-03-29T17:52:28.142Z,92012.66
2023-03-29T17:54:54.853Z,92017.72
2023-03-29T17:57:21.633Z,92021.81
2023-03-29T17:59:48.251Z,92020.16
2023-03-29T18:02:19.386Z,92026.63
2023-03-29T18:04:46.168Z,92023.28
2023-03-29T18:07:12.972Z,92023.69
2023-03-29T18:09:39.855Z,92026.38
2023-03-29T18:12:06.940Z,92034.19
2023-03-29T18:14:34.011Z,92028.81
2023-03-29T18:17:00.849Z,92028.00
2023-03-29T18:19:27.706Z,92025.91
2023-03-29T18:21:54.457Z,92031.06
2023-03-29T18:24:21.305Z,92030.97
2023-03-29T18:26:48.062Z,92036.59
2023-03-29T18:29:15.060Z,92031.22
2023-03-29T18:31:42.839Z,92029.13
2023-03-29T18:34:09.672Z,92031.78
2023-03-29T18:36:37.052Z,92025.44
2023-03-29T18:39:06.705Z,92025.09
2023-03-29T18:41:34.094Z,92028.66
2023-03-29T18:44:00.981Z,92032.34
2023-03-29T18:46:30.594Z,92030.22
2023-03-29T18:49:01.208Z,92027.56
2023-03-29T18:51:31.292Z,92030.91
2023-03-29T18:53:58.041Z,92028.25
2023-03-29T18:56:24.719Z,92034.91
2023-03-29T18:58:51.817Z,92038.38
2023-03-29T19:01:18.562Z,92035.00
2023-03-29T19:03:45.454Z,92035.00
2023-03-29T19:06:12.171Z,92030.53
2023-03-29T19:08:41.208Z,92028.75
2023-03-29T19:11:09.580Z,92019.41
2023-03-29T19:13:36.445Z,92020.66
2023-03-29T19:16:03.844Z,92022.09
2023-03-29T19:18:30.994Z,92023.78
2023-03-29T19:20:57.700Z,92023.19
2023-03-29T19:23:28.385Z,92019.50
2023-03-29T19:25:56.314Z,92019.25
2023-03-29T19:28:23.304Z,92015.53
2023-03-29T19:30:50.097Z,92017.03
2023-03-29T19:33:17.111Z,92020.00
2023-03-29T19:35:43.995Z,92010.84
2023-03-29T19:38:10.955Z,92012.63
2023-03-29T19:40:37.616Z,92010.22
2023-03-29T19:43:04.463Z,92016.91
2023-03-29T19:45:31.220Z,92016.28
2023-03-29T19:47:58.349Z,92022.38
2023-03-29T19:50:26.303Z,92017.84
2023-03-29T19:52:57.125Z,92025.25
2023-03-29T19:55:23.825Z,92017.69
2023-03-29T19:57:50.513Z,92020.53
2023-03-29T20:00:18.773Z,92012.34
2023-03-29T20:02:45.491Z,92019.75
2023-03-29T20:05:12.560Z,92022.38
2023-03-29T20:07:39.276Z,92024.75
2023-03-29T20:10:06.383Z,92025.72
2023-03-29T20:12:33.123Z,92018.78
2023-03-29T20:14:59.797Z,92017.91
2023-03-29T20:17:26.961Z,92016.56
2023-03-29T20:19:53.934Z,92023.69
2023-03-29T20:22:20.637Z,92024.25
2023-03-29T20:24:47.295Z,92017.31
2023-03-29T20:27:15.795Z,92015.66
2023-03-29T20:29:42.819Z,92015.53
2023-03-29T20:32:09.462Z,92016.03
2023-03-29T20:34:36.264Z,92019.94
2023-03-29T20:37:03.693Z,92021.41
2023-03-29T20:39:31.414Z,92027.13
2023-03-29T20:41:59.071Z,92018.78
2023-03-29T20:44:28.923Z,92021.28
2023-03-29T20:47:06.749Z,92030.91
2023-03-29T20:49:37.509Z,92028.47
2023-03-29T20:52:10.658Z,92015.66
2023-03-29T20:54:37.528Z,92018.34
2023-03-29T20:57:07.958Z,92016.13
2023-03-29T20:59:34.781Z,92022.22
2023-03-29T21:02:02.561Z,92019.75
2023-03-29T21:04:29.263Z,92021.75
2023-03-29T21:06:57.105Z,92032.34
2023-03-29T21:09:23.844Z,92025.84
2023-03-29T21:11:50.836Z,92022.34
2023-03-29T21:14:19.617Z,92018.13
2023-03-29T21:16:47.421Z,92032.16
2023-03-29T21:19:14.983Z,92035.06
2023-03-29T21:21:42.733Z,92025.41
2023-03-29T21:24:10.755Z,92030.81
2023-03-29T21:26:37.431Z,92036.34
2023-03-29T21:29:04.099Z,92034.44
2023-03-29T21:31:30.886Z,92034.03
2023-03-29T21:33:57.890Z,92039.44
2023-03-29T21:36:24.556Z,92059.16
2023-03-29T21:38:51.548Z,92053.38
2023-03-29T21:41:18.429Z,92044.44
2023-03-29T21:43:45.109Z,92047.03
2023-03-29T21:46:11.961Z,92032.00
2023-03-29T21:48:38.753Z,92036.69
2023-03-29T21:51:05.917Z,92035.19
2023-03-29T21:53:32.824Z,92031.63
2023-03-29T21:55:59.419Z,92031.63
2023-03-29T21:58:26.262Z,92030.59
2023-03-29T22:00:53.188Z,92022.22
2023-03-29T22:03:19.877Z,92031.56
2023-03-29T22:06:00.613Z,92012.94
2023-03-29T22:08:27.299Z,92025.84
2023-03-29T22:10:57.818Z,92021.00
2023-03-29T22:13:24.910Z,92016.13
2023-03-29T22:15:59.141Z,92025.88
2023-03-29T22:18:28.045Z,92025.19
2023-03-29T22:20:54.775Z,92020.34
2023-03-29T22:23:21.492Z,92019.56
2023-03-29T22:25:48.356Z,92016.00
2023-03-29T22:28:15.005Z,92011.47
2023-03-29T22:30:41.938Z,92006.22
2023-03-29T22:33:08.662Z,92007.03
2023-03-29T22:35:35.645Z,92008.19
2023-03-29T22:38:02.268Z,92006.66
2023-03-29T22:40:30.836Z,92010.53
2023-03-29T22:42:57.499Z,92003.88
2023-03-29T22:45:24.131Z,92004.13
2023-03-29T22:47:50.972Z,91996.88
2023-03-29T22:50:17.730Z,92005.22
2023-03-29T22:52:44.368Z,92008.28
2023-03-29T22:55:11.232Z,91999.91
2023-03-29T22:57:37.967Z,92017.03
2023-03-29T23:00:09.117Z,92000.75
2023-03-29T23:02:36.863Z,91997.28
2023-03-29T23:05:03.605Z,92010.28
2023-03-29T23:07:30.325Z,92003.00
2023-03-29T23:09:57.008Z,92000.47
2023-03-29T23:12:24.249Z,92005.94
2023-03-29T23:14:53.121Z,92006.91
2023-03-29T23:17:20.558Z,91998.94
2023-03-29T23:19:47.926Z,91994.53
2023-03-29T23:22:14.525Z,91999.25
2023-03-29T23:24:43.441Z,91990.63
2023-03-29T23:27:10.050Z,91995.34
2023-03-29T23:29:38.160Z,91988.50
2023-03-29T23:32:04.872Z,91986.13
2023-03-29T23:34:31.613Z,91981.94
2023-03-29T23:36:58.658Z,91974.41
2023-03-29T23:39:25.416Z,91981.38
2023-03-29T23:41:52.378Z,91987.91
2023-03-29T23:44:19.026Z,91988.31
2023-03-29T23:46:45.783Z,91987.38
2023-03-29T23:49:12.570Z,91995.19
2023-03-29T23:51:39.324Z,91995.19
2023-03-29T23:54:06.341Z,91999.78
2023-03-29T23:56:33.371Z,91989.22
2023-03-29T23:59:00.015Z,91996.66
